PILOTS ONLINE: 387    ATC ONLINE: 86

EGDX

MOD St. Athan

Location

IATA DGX
City St. Athan
Country  United Kingdom
Latitude 51° 24' 17" N
Longitude 3° 26' 8" W
Elevation 163 ft
Type Medium Airport

Map

Weather

METAR
2014/08/30 01:50
EGDX 300150Z AUTO 29012KT 9999 FEW003/// BKN011/// BKN025/// 14/13 Q1013 RERA
TAF
No TAF available

Runways

08/26 5988 ft / 141 ft

Outbound flights

Callsign Flying to Pilot ATD/STD ETA Aircraft

Inbound flights

Callsign Flying from Pilot ATD ETA Aircraft